Time;durP1;ratioP1;P1;durP2;ratioP2;P2;SDS_P1;SDS_P2;PMS_P1;PMS_P2;Temp;Humidity;BMP_temperature;BMP_pressure;BME280_temperature;BME280_humidity;BME280_pressure;Samples;Min_cycle;Max_cycle;Signal;HPM_P1;HPM_P2
2022/01/30 00:00:53;;;;;;;11.43;2.58;;;20.70;18.70;;;;;;5088728;28;20177;-66
2022/01/30 00:03:19;;;;;;;12.35;2.30;;;20.70;19.30;;;;;;5070398;28;20115;-64
2022/01/30 00:05:46;;;;;;;6.78;1.80;;;20.80;19.70;;;;;;5086214;28;20165;-63
2022/01/30 00:08:12;;;;;;;5.82;1.55;;;20.80;20.00;;;;;;5085677;28;20518;-65
2022/01/30 00:10:40;;;;;;;12.35;1.45;;;20.80;19.80;;;;;;5086633;28;20100;-70
2022/01/30 00:13:11;;;;;;;7.28;1.63;;;20.90;20.00;;;;;;5083822;28;20073;-64
2022/01/30 00:21:07;;;;;;;7.32;3.13;;;20.80;19.60;;;;;;5067251;28;20209;-64
2022/01/30 00:23:37;;;;;;;9.15;3.92;;;20.70;19.70;;;;;;5083704;28;20116;-62
2022/01/30 00:26:05;;;;;;;10.07;2.92;;;20.60;19.80;;;;;;5086166;28;20088;-65
2022/01/30 00:28:33;;;;;;;10.07;2.03;;;20.50;19.70;;;;;;5085859;28;20069;-63
2022/01/30 00:30:59;;;;;;;4.13;1.90;;;20.40;20.00;;;;;;5090487;28;20069;-64
2022/01/30 00:33:26;;;;;;;13.55;2.85;;;20.40;20.00;;;;;;5089035;28;20096;-65
2022/01/30 00:35:53;;;;;;;14.75;3.75;;;20.40;20.00;;;;;;5090763;28;20077;-64
2022/01/30 00:38:21;;;;;;;9.23;4.10;;;20.40;20.10;;;;;;5093612;28;20096;-63
2022/01/30 00:40:49;;;;;;;11.48;3.70;;;20.30;20.00;;;;;;5086006;28;20165;-65
2022/01/30 00:43:16;;;;;;;18.10;6.93;;;20.20;19.90;;;;;;5087894;28;20091;-62
2022/01/30 00:45:43;;;;;;;15.00;6.07;;;20.10;20.10;;;;;;5085133;28;20107;-62
2022/01/30 00:48:09;;;;;;;16.73;4.30;;;20.10;19.60;;;;;;5086622;28;20073;-62
2022/01/30 00:50:36;;;;;;;7.18;2.65;;;20.10;19.70;;;;;;5088514;28;20083;-62
2022/01/30 00:53:03;;;;;;;15.05;2.83;;;20.10;19.90;;;;;;5087095;28;21009;-63
2022/01/30 00:55:31;;;;;;;12.48;3.60;;;20.00;19.70;;;;;;5088928;28;20069;-63
2022/01/30 00:57:59;;;;;;;20.05;4.28;;;20.00;19.70;;;;;;5087758;28;20086;-63
2022/01/30 01:00:26;;;;;;;17.83;3.72;;;19.90;19.80;;;;;;5087134;28;20422;-63
2022/01/30 01:02:54;;;;;;;10.50;4.30;;;19.80;19.70;;;;;;5088575;28;20191;-63
2022/01/30 01:05:21;;;;;;;14.00;4.30;;;19.70;19.80;;;;;;5088325;28;20093;-64
2022/01/30 01:07:51;;;;;;;16.45;6.65;;;19.70;19.80;;;;;;5087652;28;20755;-62
2022/01/30 01:10:40;;;;;;;15.32;6.25;;;19.60;20.10;;;;;;5088206;28;20092;-62
2022/01/30 01:24:06;;;;;;;17.65;6.28;;;19.10;32.80;;;;;;5090228;28;20115;-65
2022/01/30 01:26:34;;;;;;;21.25;5.63;;;19.00;20.70;;;;;;5090497;28;20382;-67
2022/01/30 01:29:01;;;;;;;30.02;6.22;;;18.40;29.50;;;;;;5087389;28;20205;-63
2022/01/30 01:31:27;;;;;;;25.02;6.82;;;19.20;26.30;;;;;;5087874;28;20038;-63
2022/01/30 01:36:21;;;;;;;23.42;5.57;;;;;;;;;;5088434;28;20414;-63
2022/01/30 01:38:48;;;;;;;24.58;6.00;;;18.60;23.50;;;;;;5086853;28;20061;-63
2022/01/30 01:41:18;;;;;;;;;;;18.60;22.30;;;;;;5087889;28;20048;-69
2022/01/30 01:43:45;;;;;;;15.57;6.22;;;18.50;22.80;;;;;;5089072;28;19930;-70
2022/01/30 01:46:17;;;;;;;33.28;10.02;;;18.30;22.30;;;;;;5089057;28;20128;-65
2022/01/30 01:48:45;;;;;;;26.13;10.95;;;18.30;22.40;;;;;;5086846;28;20087;-64
2022/01/30 01:51:17;;;;;;;37.13;10.88;;;17.90;42.90;;;;;;5087731;28;20457;-64
2022/01/30 01:53:48;;;;;;;23.00;9.75;;;18.20;30.00;;;;;;5087711;28;20136;-70
2022/01/30 01:56:16;;;;;;;32.58;8.98;;;17.50;28.10;;;;;;5086711;28;20169;-62
2022/01/30 01:58:43;;;;;;;29.00;6.50;;;;;;;;;;5085896;28;20024;-68
2022/01/30 02:01:09;;;;;;;17.08;4.32;;;17.60;58.90;;;;;;5087842;28;20043;-69
2022/01/30 02:03:38;;;;;;;16.65;3.95;;;20.20;24.20;;;;;;5088120;28;20039;-62
2022/01/30 02:06:07;;;;;;;14.68;4.15;;;18.30;55.00;;;;;;5091372;28;20024;-65
2022/01/30 02:08:41;;;;;;;16.73;4.30;;;18.60;52.20;;;;;;5087155;28;20144;-68
2022/01/30 02:24:41;;;;;;;23.83;5.90;;;17.40;33.00;;;;;;5088859;28;20413;-62
2022/01/30 02:27:23;;;;;;;20.02;5.95;;;17.20;33.00;;;;;;5088649;28;20153;-64
2022/01/30 02:29:50;;;;;;;20.02;6.75;;;16.70;52.20;;;;;;5086507;28;20480;-62
2022/01/30 02:32:17;;;;;;;31.88;8.73;;;16.50;43.90;;;;;;5091649;28;20446;-63
2022/01/30 02:34:44;;;;;;;30.13;7.63;;;16.40;53.10;;;;;;5085819;28;20424;-62
2022/01/30 02:37:13;;;;;;;38.13;7.65;;;16.90;26.10;;;;;;5085940;28;20791;-64
2022/01/30 02:39:39;;;;;;;31.15;8.40;;;;;;;;;;5085481;28;20031;-65
2022/01/30 02:42:06;;;;;;;35.10;8.05;;;16.90;29.70;;;;;;5087277;28;20610;-65
2022/01/30 02:44:42;;;;;;;41.17;7.75;;;16.20;57.20;;;;;;5086515;28;20028;-62
2022/01/30 02:47:22;;;;;;;38.67;7.10;;;16.50;33.70;;;;;;5086320;28;20382;-64
2022/01/30 02:50:11;;;;;;;35.33;7.63;;;16.70;43.00;;;;;;5087310;28;20069;-62
2022/01/30 02:52:40;;;;;;;30.33;7.65;;;16.20;27.50;;;;;;5084286;28;20076;-63
2022/01/30 02:55:08;;;;;;;38.92;7.13;;;15.40;48.90;;;;;;5086374;28;20073;-65
2022/01/30 02:57:35;;;;;;;28.38;7.50;;;16.20;41.70;;;;;;5086700;28;20491;-66
2022/01/30 03:00:02;;;;;;;26.05;6.40;;;;;;;;;;5086183;28;20028;-64
2022/01/30 03:02:28;;;;;;;27.33;7.43;;;;;;;;;;5085984;28;20081;-65
2022/01/30 03:04:54;;;;;;;;;;;15.80;42.40;;;;;;5086763;28;20055;-64
2022/01/30 03:07:24;;;;;;;27.38;6.85;;;15.50;57.30;;;;;;5086973;28;19972;-63
2022/01/30 03:09:50;;;;;;;29.00;6.57;;;;;;;;;;5088223;28;20078;-64
2022/01/30 03:12:17;;;;;;;;;;;15.50;28.60;;;;;;5083374;28;20118;-66
2022/01/30 03:14:43;;;;;;;40.00;7.10;;;15.50;36.10;;;;;;5086301;28;20016;-63
2022/01/30 03:17:09;;;;;;;;;;;15.30;29.70;;;;;;5087729;28;20069;-64
2022/01/30 03:19:36;;;;;;;48.95;7.15;;;;;;;;;;5085598;28;19985;-64
2022/01/30 03:22:03;;;;;;;41.70;7.43;;;14.90;30.10;;;;;;5087631;28;20038;-66
2022/01/30 03:24:36;;;;;;;38.70;6.47;;;15.10;30.40;;;;;;5086533;28;20481;-66
2022/01/30 03:27:04;;;;;;;49.95;7.53;;;14.80;38.50;;;;;;5086908;28;20024;-63
2022/01/30 03:29:32;;;;;;;30.63;6.72;;;15.00;29.90;;;;;;5089691;28;20078;-65
2022/01/30 03:31:59;;;;;;;37.35;7.13;;;15.00;51.70;;;;;;5091860;28;20020;-67
2022/01/30 03:34:25;;;;;;;35.30;7.45;;;;;;;;;;5092320;28;20425;-65
2022/01/30 03:36:52;;;;;;;42.55;9.52;;;14.70;48.90;;;;;;5090342;28;20031;-66
2022/01/30 03:39:19;;;;;;;61.03;12.00;;;14.70;30.00;;;;;;5073510;28;20084;-65
2022/01/30 03:41:46;;;;;;;50.75;11.05;;;;;;;;;;5091228;28;20180;-63
2022/01/30 03:44:12;;;;;;;60.70;13.57;;;14.40;32.00;;;;;;5090444;28;20479;-63
2022/01/30 03:46:38;;;;;;;;;;;14.70;30.40;;;;;;5091060;28;20075;-63
2022/01/30 03:49:05;;;;;;;48.33;13.13;;;14.60;30.70;;;;;;5090508;28;19957;-63
2022/01/30 03:51:31;;;;;;;54.20;14.70;;;14.60;31.10;;;;;;5090099;28;20498;-63
2022/01/30 03:53:58;;;;;;;72.00;16.98;;;14.50;31.00;;;;;;5090255;28;20087;-64
2022/01/30 03:56:24;;;;;;;;;;;14.50;31.40;;;;;;5088817;28;20077;-65
2022/01/30 03:58:50;;;;;;;67.43;16.25;;;;;;;;;;5090135;28;20002;-65
2022/01/30 04:01:16;;;;;;;;;;;14.30;52.90;;;;;;5090260;28;20386;-65
2022/01/30 04:03:43;;;;;;;56.88;15.52;;;;;;;;;;5090111;28;19923;-64
2022/01/30 04:06:12;;;;;;;57.20;14.75;;;;;;;;;;5089041;28;20537;-65
2022/01/30 04:08:39;;;;;;;73.07;14.73;;;;;;;;;;5090734;28;20020;-65
2022/01/30 04:11:06;;;;;;;53.20;14.50;;;;;;;;;;5090928;28;20016;-65
2022/01/30 04:13:32;;;;;;;66.15;16.20;;;;;;;;;;5089367;28;20027;-67
2022/01/30 04:15:59;;;;;;;59.05;15.60;;;14.00;55.10;;;;;;5091482;28;20077;-64
2022/01/30 04:18:25;;;;;;;80.60;17.42;;;14.00;44.90;;;;;;5090646;28;20398;-64
2022/01/30 04:20:52;;;;;;;93.15;17.52;;;14.00;34.80;;;;;;5088276;28;20075;-64
2022/01/30 04:23:19;;;;;;;77.38;18.50;;;14.10;30.90;;;;;;5089273;28;20143;-63
2022/01/30 04:25:45;;;;;;;81.78;18.65;;;14.00;37.80;;;;;;5072977;28;20568;-63
2022/01/30 04:28:12;;;;;;;;;;;14.00;46.80;;;;;;5090838;28;20429;-65
2022/01/30 04:30:38;;;;;;;86.47;22.58;;;14.10;47.90;;;;;;5090680;28;19916;-64
2022/01/30 04:33:05;;;;;;;76.05;21.33;;;14.00;31.50;;;;;;5089499;28;20088;-64
2022/01/30 04:35:32;;;;;;;90.97;22.00;;;13.90;62.40;;;;;;5087519;28;20445;-64
2022/01/30 04:57:19;;;;;;;144.18;34.15;;;13.80;33.90;;;;;;5088367;28;20080;-66
2022/01/30 05:05:07;;;;;;;153.50;35.25;;;13.60;34.30;;;;;;5090424;28;20120;-64
2022/01/30 05:07:36;;;;;;;153.50;35.30;;;13.60;34.90;;;;;;5092166;28;20065;-64
2022/01/30 05:10:04;;;;;;;129.10;35.35;;;13.50;35.30;;;;;;5088490;28;20073;-63
2022/01/30 05:12:38;;;;;;;167.80;35.10;;;13.40;35.30;;;;;;5087428;28;20518;-64
2022/01/30 05:15:05;;;;;;;125.30;32.40;;;13.40;35.10;;;;;;5090555;28;20690;-65
2022/01/30 05:17:32;;;;;;;134.05;34.42;;;13.40;35.40;;;;;;5090710;28;20081;-65
2022/01/30 05:19:59;;;;;;;144.43;35.25;;;13.30;35.80;;;;;;5088742;28;20110;-65
2022/01/30 05:22:25;;;;;;;143.38;34.40;;;13.30;35.80;;;;;;5087394;28;20526;-65
2022/01/30 05:24:52;;;;;;;164.65;38.33;;;13.20;35.70;;;;;;5087703;28;20116;-64
2022/01/30 05:27:19;;;;;;;145.02;36.95;;;13.10;35.50;;;;;;5088030;28;20094;-64
2022/01/30 05:29:45;;;;;;;140.55;37.33;;;13.10;35.80;;;;;;5088625;28;20068;-65
2022/01/30 05:32:12;;;;;;;156.95;36.85;;;13.10;36.10;;;;;;5088375;28;20081;-64
2022/01/30 05:34:39;;;;;;;167.85;38.30;;;13.00;36.50;;;;;;5088083;28;20073;-65
2022/01/30 05:37:11;;;;;;;160.38;38.67;;;13.00;36.70;;;;;;5088095;28;20085;-62
2022/01/30 05:39:38;;;;;;;156.13;35.88;;;12.90;36.70;;;;;;5070411;28;20069;-61
2022/01/30 05:42:04;;;;;;;156.18;37.38;;;12.90;36.90;;;;;;5088179;28;20073;-64
2022/01/30 05:44:44;;;;;;;158.23;38.13;;;12.90;36.70;;;;;;5086961;28;20130;-64
2022/01/30 05:47:25;;;;;;;149.35;34.35;;;12.90;36.40;;;;;;5088779;28;20122;-63
2022/01/30 05:49:51;;;;;;;168.27;37.30;;;12.90;36.10;;;;;;5086191;28;20173;-64
2022/01/30 05:52:18;;;;;;;229.13;41.17;;;12.80;36.20;;;;;;5088785;28;20073;-65
2022/01/30 05:54:45;;;;;;;194.65;38.53;;;12.80;36.40;;;;;;5089362;28;20083;-64
2022/01/30 05:57:11;;;;;;;;;;;12.80;36.60;;;;;;5088361;28;20102;-65
2022/01/30 05:59:37;;;;;;;173.95;37.83;;;12.80;36.50;;;;;;5089271;28;19957;-67
2022/01/30 06:02:03;;;;;;;;;;;12.70;36.30;;;;;;5090464;28;20076;-62
2022/01/30 06:04:30;;;;;;;163.27;40.17;;;12.70;36.30;;;;;;5087127;28;20021;-64
2022/01/30 06:06:57;;;;;;;;;;;12.60;36.10;;;;;;5089774;28;20531;-65
2022/01/30 06:09:24;;;;;;;142.32;40.75;;;12.60;48.80;;;;;;5087337;28;19964;-64
2022/01/30 06:11:50;;;;;;;;;;;12.50;36.20;;;;;;5089163;28;20866;-66
2022/01/30 06:14:21;;;;;;;155.00;43.55;;;12.50;36.20;;;;;;5085952;28;19956;-64
2022/01/30 06:16:49;;;;;;;138.18;41.58;;;12.50;36.10;;;;;;5087408;28;20089;-65
2022/01/30 06:19:22;;;;;;;161.32;43.78;;;12.50;36.70;;;;;;5087314;28;20072;-65
2022/01/30 06:21:51;;;;;;;149.35;45.08;;;12.60;48.10;;;;;;5085523;28;20420;-66
2022/01/30 06:24:18;;;;;;;151.75;44.38;;;12.50;36.60;;;;;;5085451;28;20197;-66
2022/01/30 06:26:44;;;;;;;;;;;12.50;36.70;;;;;;5087770;28;20079;-65
2022/01/30 06:29:11;;;;;;;152.98;42.53;;;12.60;36.80;;;;;;5088341;28;19960;-65
2022/01/30 06:31:37;;;;;;;138.57;41.28;;;12.60;37.20;;;;;;5087655;28;20190;-65
2022/01/30 06:34:03;;;;;;;138.90;38.85;;;12.60;37.50;;;;;;5085095;28;20105;-64
2022/01/30 06:36:29;;;;;;;;;;;12.60;37.50;;;;;;5087528;28;20107;-65
2022/01/30 06:38:59;;;;;;;117.80;38.28;;;12.60;39.50;;;;;;5089717;28;19947;-66
2022/01/30 06:41:25;;;;;;;132.32;36.92;;;12.60;37.70;;;;;;5090888;28;20057;-66
2022/01/30 06:43:51;;;;;;;124.82;37.15;;;12.50;38.50;;;;;;5086612;28;20564;-69
2022/01/30 06:46:17;;;;;;;;;;;12.50;38.30;;;;;;5086954;28;20064;-66
2022/01/30 06:48:44;;;;;;;119.18;35.42;;;12.50;43.00;;;;;;5086501;28;19957;-65
2022/01/30 06:51:10;;;;;;;126.72;35.03;;;12.40;64.80;;;;;;5087238;28;20052;-64
2022/01/30 06:53:36;;;;;;;;;;;12.30;38.40;;;;;;5087693;28;20108;-64
2022/01/30 06:56:03;;;;;;;110.65;34.10;;;12.10;56.70;;;;;;5087911;28;19961;-65
2022/01/30 06:58:29;;;;;;;117.07;34.35;;;12.20;38.70;;;;;;5087339;28;20147;-66
2022/01/30 07:00:56;;;;;;;103.93;32.40;;;12.20;38.90;;;;;;5086608;28;20083;-66
2022/01/30 07:03:22;;;;;;;121.15;33.45;;;12.20;38.90;;;;;;5090797;28;20453;-65
2022/01/30 07:05:48;;;;;;;;;;;12.20;38.90;;;;;;5096340;28;20079;-66
2022/01/30 07:08:16;;;;;;;128.55;33.97;;;12.10;41.90;;;;;;5090409;28;19947;-64
2022/01/30 07:10:45;;;;;;;114.15;31.65;;;11.90;40.30;;;;;;5091294;28;20077;-65
2022/01/30 07:13:12;;;;;;;116.03;32.92;;;11.90;39.10;;;;;;5092247;28;20637;-66
2022/01/30 07:15:44;;;;;;;119.80;33.35;;;12.10;70.10;;;;;;5090107;28;20077;-67
2022/01/30 07:18:11;;;;;;;107.00;31.42;;;11.90;39.60;;;;;;5089670;28;20097;-65
2022/01/30 07:20:38;;;;;;;105.15;33.05;;;11.80;40.00;;;;;;5073787;28;20104;-65
2022/01/30 07:23:04;;;;;;;107.38;31.80;;;11.80;40.00;;;;;;5088312;28;20458;-65
2022/01/30 07:25:30;;;;;;;;;;;11.80;39.90;;;;;;5088016;28;20959;-64
2022/01/30 07:27:57;;;;;;;113.35;29.77;;;11.70;42.00;;;;;;5087186;28;20004;-64
2022/01/30 07:30:23;;;;;;;99.70;29.10;;;11.60;39.50;;;;;;5089267;28;20180;-64
2022/01/30 07:32:49;;;;;;;;;;;11.60;40.20;;;;;;5090125;28;20070;-65
2022/01/30 07:35:17;;;;;;;82.93;25.42;;;11.60;41.00;;;;;;5087679;28;20344;-64
2022/01/30 07:37:43;;;;;;;71.85;22.45;;;11.60;39.60;;;;;;5088839;28;20070;-65
2022/01/30 07:40:10;;;;;;;;;;;11.70;40.40;;;;;;5072608;28;20411;-64
2022/01/30 07:42:36;;;;;;;82.53;19.45;;;11.90;42.70;;;;;;5073299;28;19956;-66
2022/01/30 07:45:04;;;;;;;96.63;20.50;;;11.60;40.50;;;;;;5087297;28;20079;-64
2022/01/30 07:47:31;;;;;;;70.90;20.20;;;11.50;40.50;;;;;;5089067;28;20096;-65
2022/01/30 07:49:58;;;;;;;71.32;20.17;;;11.50;40.30;;;;;;5088629;28;20130;-65
2022/01/30 07:52:25;;;;;;;68.13;19.08;;;11.50;40.60;;;;;;5089907;28;20492;-64
2022/01/30 07:54:51;;;;;;;68.97;19.63;;;11.50;40.80;;;;;;5072049;28;20100;-64
2022/01/30 07:57:18;;;;;;;;;;;11.50;40.90;;;;;;5088101;28;20546;-65
2022/01/30 07:59:45;;;;;;;62.92;19.23;;;11.40;40.90;;;;;;5088603;28;20318;-64
2022/01/30 08:02:11;;;;;;;;;;;11.40;40.90;;;;;;5091810;28;20080;-64
2022/01/30 08:04:37;;;;;;;59.47;16.75;;;11.30;41.10;;;;;;5088831;28;19977;-64
2022/01/30 08:07:04;;;;;;;52.78;17.23;;;11.30;41.60;;;;;;5090800;28;20076;-63
2022/01/30 08:09:30;;;;;;;61.97;19.67;;;11.20;41.60;;;;;;5088392;28;20069;-64
2022/01/30 08:11:57;;;;;;;64.10;18.45;;;11.20;41.80;;;;;;5089985;28;20098;-63
2022/01/30 08:14:23;;;;;;;;;;;11.20;42.50;;;;;;5072161;28;20538;-63
2022/01/30 08:16:49;;;;;;;70.63;18.50;;;11.20;50.60;;;;;;5089588;28;19941;-64
2022/01/30 08:19:16;;;;;;;;;;;11.10;42.40;;;;;;5088177;28;20072;-64
2022/01/30 08:21:42;;;;;;;78.87;20.10;;;11.00;42.50;;;;;;5087505;28;19957;-64
2022/01/30 08:24:09;;;;;;;;;;;10.90;42.30;;;;;;5086548;28;20111;-63
2022/01/30 08:26:35;;;;;;;66.88;19.58;;;11.00;42.50;;;;;;5087475;28;19941;-63
2022/01/30 08:29:01;;;;;;;57.55;18.48;;;11.00;42.20;;;;;;5086694;28;20501;-63
2022/01/30 08:31:27;;;;;;;;;;;10.90;42.20;;;;;;5086794;28;20066;-64
2022/01/30 08:33:55;;;;;;;62.58;18.98;;;11.20;46.10;;;;;;5088327;28;20436;-64
2022/01/30 08:36:21;;;;;;;58.42;18.67;;;10.90;42.40;;;;;;5088327;28;20167;-64
2022/01/30 08:38:47;;;;;;;;;;;10.90;42.70;;;;;;5087937;28;20076;-63
2022/01/30 08:41:14;;;;;;;87.95;19.55;;;10.90;42.60;;;;;;5086906;28;19957;-63
2022/01/30 08:43:40;;;;;;;;;;;10.90;42.90;;;;;;5056032;28;20080;-63
2022/01/30 08:46:06;;;;;;;73.60;18.75;;;10.90;42.90;;;;;;5084577;28;19973;-65
2022/01/30 08:48:33;;;;;;;58.40;17.48;;;10.80;42.70;;;;;;5087940;28;20076;-64
2022/01/30 08:50:59;;;;;;;54.20;16.75;;;10.80;42.60;;;;;;5086944;28;20527;-64
2022/01/30 08:53:26;;;;;;;59.10;16.88;;;10.70;42.60;;;;;;5086825;28;20079;-63
2022/01/30 08:55:52;;;;;;;;;;;10.70;42.50;;;;;;5072389;28;20059;-65
2022/01/30 08:58:19;;;;;;;70.65;18.50;;;10.70;49.30;;;;;;5088211;28;19945;-64
2022/01/30 09:00:46;;;;;;;54.75;16.45;;;10.70;41.90;;;;;;5087550;28;20115;-64
2022/01/30 09:03:14;;;;;;;59.38;16.45;;;10.70;41.60;;;;;;5087808;28;20077;-64
2022/01/30 09:05:40;;;;;;;62.42;18.25;;;10.80;42.20;;;;;;5089265;28;20484;-63
2022/01/30 09:08:07;;;;;;;;;;;10.70;42.00;;;;;;5086676;28;20071;-63
2022/01/30 09:10:39;;;;;;;50.05;16.92;;;10.80;41.80;;;;;;5086305;28;20019;-64
2022/01/30 09:13:06;;;;;;;46.55;14.82;;;10.80;41.70;;;;;;5087647;28;20129;-64
2022/01/30 09:15:42;;;;;;;41.72;14.85;;;10.90;41.00;;;;;;5086620;28;20514;-64
2022/01/30 09:18:10;;;;;;;39.72;13.45;;;10.80;39.90;;;;;;5088314;28;20534;-63
2022/01/30 09:20:40;;;;;;;44.95;14.38;;;10.80;39.40;;;;;;5088056;28;20072;-63
2022/01/30 09:23:08;;;;;;;43.45;15.07;;;10.80;39.40;;;;;;5072599;28;20113;-64
2022/01/30 09:25:34;;;;;;;34.80;12.88;;;10.80;39.40;;;;;;5081340;28;20089;-63
2022/01/30 09:28:01;;;;;;;43.15;12.52;;;10.80;39.30;;;;;;5085507;28;20126;-64
2022/01/30 09:30:28;;;;;;;52.38;12.90;;;10.80;39.30;;;;;;5085266;28;20566;-64
2022/01/30 09:32:54;;;;;;;;;;;10.70;39.10;;;;;;5089791;28;20082;-64
2022/01/30 09:35:20;;;;;;;41.20;12.00;;;10.80;39.10;;;;;;5088551;28;20402;-64
2022/01/30 09:37:47;;;;;;;47.83;12.93;;;10.80;39.40;;;;;;5085957;28;20094;-63
2022/01/30 09:40:20;;;;;;;45.47;13.80;;;10.80;39.40;;;;;;5084346;28;20088;-65
2022/01/30 09:42:47;;;;;;;48.58;14.07;;;10.80;39.30;;;;;;5089266;28;20079;-64
2022/01/30 09:45:15;;;;;;;48.03;13.18;;;10.80;40.20;;;;;;5085706;28;20095;-65
2022/01/30 09:47:42;;;;;;;50.08;13.05;;;10.80;39.90;;;;;;5085857;28;20505;-64
2022/01/30 09:50:10;;;;;;;33.88;11.77;;;10.70;40.20;;;;;;5088114;28;20156;-66
2022/01/30 09:52:37;;;;;;;38.50;11.82;;;10.70;40.40;;;;;;5087082;28;20072;-64
2022/01/30 09:55:11;;;;;;;40.08;12.65;;;10.70;40.50;;;;;;5086332;28;20076;-64
2022/01/30 09:57:38;;;;;;;32.67;11.45;;;10.60;40.40;;;;;;5084861;28;20083;-64
2022/01/30 10:00:07;;;;;;;46.60;12.50;;;10.60;40.50;;;;;;5088299;28;20075;-65
2022/01/30 10:02:33;;;;;;;44.78;11.95;;;10.60;41.00;;;;;;5088506;28;20526;-63
2022/01/30 10:05:00;;;;;;;42.78;11.75;;;10.60;41.30;;;;;;5085849;28;20116;-65
2022/01/30 10:07:49;;;;;;;53.45;12.65;;;10.50;41.20;;;;;;5087045;28;20129;-64
2022/01/30 10:10:18;;;;;;;35.15;11.93;;;10.50;41.40;;;;;;5086984;28;20090;-64
2022/01/30 10:13:13;;;;;;;34.50;10.80;;;10.50;48.30;;;;;;5086812;28;20060;-64
2022/01/30 10:15:56;;;;;;;41.30;11.35;;;10.20;42.50;;;;;;5084911;28;20066;-64
2022/01/30 10:18:24;;;;;;;49.05;11.80;;;10.30;41.10;;;;;;5089615;28;20449;-61
2022/01/30 10:20:51;;;;;;;44.42;12.18;;;10.30;40.90;;;;;;5087602;28;20445;-64
2022/01/30 10:23:17;;;;;;;45.53;11.98;;;10.30;41.60;;;;;;5085690;28;20139;-64
2022/01/30 10:25:53;;;;;;;55.33;12.13;;;10.20;41.20;;;;;;5084980;28;20175;-63
2022/01/30 10:28:31;;;;;;;44.92;13.32;;;10.20;41.80;;;;;;5069078;28;20064;-62
2022/01/30 10:31:02;;;;;;;52.58;12.65;;;10.10;41.80;;;;;;5085114;28;20186;-63
2022/01/30 10:33:49;;;;;;;54.65;13.75;;;10.10;41.90;;;;;;5084784;28;20178;-63
2022/01/30 10:36:23;;;;;;;50.65;13.48;;;10.10;41.60;;;;;;5082956;28;20068;-63
2022/01/30 10:39:11;;;;;;;51.63;13.75;;;10.10;41.50;;;;;;5085393;28;20482;-63
2022/01/30 10:41:41;;;;;;;56.15;13.68;;;10.00;41.80;;;;;;5086730;28;20508;-63
2022/01/30 10:44:09;;;;;;;59.53;14.02;;;10.10;41.80;;;;;;5084977;28;20748;-64
2022/01/30 10:46:40;;;;;;;52.55;13.93;;;10.10;42.30;;;;;;5068364;28;20123;-64
2022/01/30 10:49:21;;;;;;;57.47;14.15;;;10.10;43.50;;;;;;5070469;28;20068;-65
2022/01/30 10:51:57;;;;;;;52.67;14.23;;;10.00;43.40;;;;;;5102269;28;20561;-64
2022/01/30 10:54:29;;;;;;;55.10;15.35;;;10.00;43.10;;;;;;5084250;28;20436;-63
2022/01/30 10:57:08;;;;;;;45.72;14.43;;;10.00;43.40;;;;;;5084404;28;20553;-66
2022/01/30 10:59:42;;;;;;;64.55;15.68;;;9.90;42.70;;;;;;5088202;28;20077;-63
2022/01/30 11:02:28;;;;;;;52.30;15.57;;;9.80;42.70;;;;;;5084761;28;20431;-63
2022/01/30 11:05:06;;;;;;;48.47;15.88;;;9.90;42.90;;;;;;5085648;28;20152;-63
2022/01/30 11:07:36;;;;;;;52.72;13.55;;;9.80;50.10;;;;;;5085931;28;20087;-64
2022/01/30 11:10:19;;;;;;;46.08;13.20;;;9.80;42.80;;;;;;5086107;28;20072;-66
2022/01/30 11:12:56;;;;;;;41.45;12.60;;;9.80;42.90;;;;;;5085218;28;20542;-65
2022/01/30 11:17:57;;;;;;;40.90;13.10;;;9.80;42.40;;;;;;5085998;28;19977;-62
2022/01/30 11:20:25;;;;;;;43.05;14.10;;;9.80;42.50;;;;;;5084355;28;20083;-63
2022/01/30 11:22:58;;;;;;;48.60;14.02;;;9.80;42.50;;;;;;5084722;28;20070;-64
2022/01/30 11:25:25;;;;;;;46.08;13.43;;;9.80;42.20;;;;;;5085227;28;20093;-63
2022/01/30 11:27:54;;;;;;;34.58;12.75;;;9.80;41.90;;;;;;5085255;28;20087;-63
2022/01/30 11:30:21;;;;;;;38.95;10.52;;;9.80;41.70;;;;;;5084041;28;20072;-62
2022/01/30 11:32:47;;;;;;;;;;;9.70;41.70;;;;;;5086401;28;20088;-63
2022/01/30 11:35:13;;;;;;;36.92;11.73;;;9.50;44.00;;;;;;5085539;28;19956;-62
2022/01/30 11:37:40;;;;;;;41.20;11.88;;;9.70;41.40;;;;;;5084132;28;20106;-62
2022/01/30 11:40:13;;;;;;;42.08;12.30;;;9.60;43.70;;;;;;5066829;28;20125;-62
2022/01/30 11:42:42;;;;;;;33.80;11.43;;;9.80;47.30;;;;;;5070052;28;20080;-64
2022/01/30 11:45:08;;;;;;;29.95;11.27;;;9.70;41.40;;;;;;5087750;28;20558;-65
2022/01/30 11:47:51;;;;;;;34.78;10.02;;;9.80;41.40;;;;;;5085782;28;20112;-63
2022/01/30 11:50:20;;;;;;;32.35;9.82;;;9.80;41.00;;;;;;5088166;28;20078;-63
2022/01/30 11:53:00;;;;;;;33.40;9.45;;;9.80;41.50;;;;;;5087385;28;20172;-63
2022/01/30 11:55:56;;;;;;;35.65;10.05;;;9.80;41.80;;;;;;5089594;28;20076;-63
2022/01/30 11:58:38;;;;;;;28.52;10.20;;;9.90;63.50;;;;;;5088666;28;20076;-63
2022/01/30 12:01:26;;;;;;;25.15;9.20;;;9.60;40.90;;;;;;5089783;28;20079;-65
2022/01/30 12:04:11;;;;;;;34.15;9.10;;;9.50;40.70;;;;;;5088559;28;20084;-65
2022/01/30 12:06:40;;;;;;;28.13;8.27;;;9.60;40.30;;;;;;5088247;28;20444;-66
2022/01/30 12:09:20;;;;;;;21.85;8.07;;;9.60;39.80;;;;;;5089162;28;20077;-66
2022/01/30 12:11:50;;;;;;;27.15;7.60;;;9.70;38.60;;;;;;5086742;28;20104;-63
2022/01/30 12:14:19;;;;;;;38.22;8.45;;;9.80;38.50;;;;;;5086832;28;20099;-64
2022/01/30 12:16:52;;;;;;;20.23;7.90;;;9.80;38.40;;;;;;5088207;28;20556;-65
2022/01/30 12:20:02;;;;;;;27.13;8.35;;;9.90;39.20;;;;;;5088882;28;20084;-65
2022/01/30 12:22:30;;;;;;;24.00;7.15;;;9.90;39.80;;;;;;5074942;28;20101;-65
2022/01/30 12:25:22;;;;;;;29.25;8.70;;;9.80;39.40;;;;;;5085545;28;20108;-62
2022/01/30 12:27:50;;;;;;;29.38;8.30;;;9.80;39.60;;;;;;5073850;28;20164;-63
2022/01/30 12:30:44;;;;;;;24.65;7.72;;;9.80;39.50;;;;;;5088167;28;20080;-63
2022/01/30 12:33:47;;;;;;;21.77;7.30;;;9.70;39.20;;;;;;5072488;28;20433;-62
2022/01/30 12:36:16;;;;;;;22.90;6.90;;;9.70;38.60;;;;;;5086805;28;20089;-63
2022/01/30 12:38:42;;;;;;;17.20;6.85;;;9.70;39.10;;;;;;5089654;28;20469;-63
2022/01/30 12:41:18;;;;;;;23.17;6.30;;;9.70;39.00;;;;;;5086967;28;21124;-63
2022/01/30 12:43:45;;;;;;;24.27;6.15;;;9.60;38.30;;;;;;5086924;28;20083;-62
2022/01/30 12:46:14;;;;;;;17.60;5.40;;;9.60;38.30;;;;;;5086714;28;20116;-60
2022/01/30 12:48:40;;;;;;;24.55;5.95;;;9.70;38.30;;;;;;5088372;28;20084;-64
2022/01/30 12:51:13;;;;;;;16.42;6.05;;;9.70;37.40;;;;;;5087315;28;20122;-62
2022/01/30 12:53:42;;;;;;;18.85;5.75;;;9.70;37.40;;;;;;5087766;28;20072;-64
2022/01/30 12:56:09;;;;;;;18.85;5.15;;;9.70;37.30;;;;;;5086715;28;20155;-61
2022/01/30 12:58:40;;;;;;;17.70;4.20;;;9.70;38.10;;;;;;5086442;28;20133;-65
2022/01/30 13:01:08;;;;;;;13.32;4.13;;;9.70;37.00;;;;;;5088500;28;20084;-64
2022/01/30 13:03:34;;;;;;;9.88;2.33;;;9.70;36.60;;;;;;5089713;28;20076;-64
2022/01/30 13:06:00;;;;;;;8.55;1.77;;;9.80;35.20;;;;;;5086104;28;20629;-63
2022/01/30 13:08:50;;;;;;;3.53;1.50;;;9.90;34.30;;;;;;5086632;28;20080;-63
2022/01/30 13:11:24;;;;;;;5.10;1.23;;;10.00;33.30;;;;;;5087391;28;20091;-63
2022/01/30 13:14:19;;;;;;;7.97;1.30;;;10.20;32.80;;;;;;5087588;28;20081;-63
2022/01/30 13:16:48;;;;;;;3.60;1.40;;;10.30;32.60;;;;;;5011402;28;20082;-65
2022/01/30 13:19:29;;;;;;;4.72;1.30;;;10.30;32.90;;;;;;4990824;28;20074;-65
2022/01/30 13:21:55;;;;;;;4.30;1.38;;;10.30;33.80;;;;;;4990715;28;20082;-64
2022/01/30 13:24:22;;;;;;;5.93;1.58;;;10.30;34.30;;;;;;4996026;28;20926;-64
2022/01/30 13:26:55;;;;;;;6.72;1.52;;;10.20;35.40;;;;;;5009141;28;20161;-65
2022/01/30 13:29:22;;;;;;;11.63;1.83;;;10.20;36.40;;;;;;5006813;28;20078;-64
2022/01/30 13:31:57;;;;;;;6.30;1.63;;;10.10;36.60;;;;;;4994374;28;20097;-62
2022/01/30 13:34:26;;;;;;;6.25;1.88;;;10.10;36.50;;;;;;5008474;28;20104;-64
2022/01/30 13:37:06;;;;;;;5.03;1.65;;;9.70;44.30;;;;;;4990463;28;20082;-63
2022/01/30 13:42:39;;;;;;;7.57;2.08;;;9.90;37.20;;;;;;5007353;28;20672;-63
2022/01/30 13:48:03;;;;;;;8.25;2.28;;;9.70;37.70;;;;;;5004984;28;20075;-62
2022/01/30 13:50:34;;;;;;;8.88;3.13;;;9.60;37.90;;;;;;4994508;28;20093;-63
2022/01/30 13:53:19;;;;;;;14.15;4.82;;;9.60;37.50;;;;;;5033944;28;20179;-65
2022/01/30 13:55:58;;;;;;;22.67;5.90;;;9.60;37.40;;;;;;5087208;28;20144;-65
2022/01/30 13:58:44;;;;;;;26.67;6.93;;;9.60;37.00;;;;;;5084291;28;20096;-65
2022/01/30 14:01:30;;;;;;;13.77;6.10;;;9.50;37.40;;;;;;5088945;28;20081;-63
2022/01/30 14:04:11;;;;;;;21.73;6.72;;;9.50;37.80;;;;;;5086536;28;20546;-63